Time;durP1;ratioP1;P1;durP2;ratioP2;P2;SDS_P1;SDS_P2;PMS_P1;PMS_P2;Temp;Humidity;BMP_temperature;BMP_pressure;BME280_temperature;BME280_humidity;BME280_pressure;Samples;Min_cycle;Max_cycle;Signal;HPM_P1;HPM_P2
2021/01/19 00:00:05;;;;;;;7.32;3.70;;;;;;;2.88;73.31;101149.72;4993470;28;20032;-71
2021/01/19 00:02:31;;;;;;;8.70;4.55;;;;;;;2.96;73.02;101139.69;4984189;28;20053;-71
2021/01/19 00:04:56;;;;;;;7.63;3.92;;;;;;;2.84;73.48;101143.00;5002743;28;20479;-71
2021/01/19 00:07:21;;;;;;;9.40;4.70;;;;;;;2.90;73.32;101148.69;4996253;28;20097;-71
2021/01/19 00:09:47;;;;;;;7.45;4.38;;;;;;;2.89;73.34;101154.03;5005377;28;20511;-71
2021/01/19 00:12:12;;;;;;;6.28;4.18;;;;;;;2.81;73.75;101154.44;4998290;28;20084;-71
2021/01/19 00:14:37;;;;;;;6.75;3.78;;;;;;;2.81;73.74;101143.16;4998549;28;20027;-71
2021/01/19 00:17:02;;;;;;;6.55;4.32;;;;;;;2.87;73.54;101145.44;4996640;28;20042;-71
2021/01/19 00:19:28;;;;;;;9.38;4.25;;;;;;;2.87;73.53;101145.44;5002314;28;20037;-71
2021/01/19 00:21:53;;;;;;;6.53;4.03;;;;;;;2.86;73.58;101136.75;4997168;28;20113;-71
2021/01/19 00:24:18;;;;;;;7.47;4.50;;;;;;;2.88;73.40;101136.66;4999074;28;20025;-71
2021/01/19 00:26:44;;;;;;;6.65;4.25;;;;;;;2.86;73.77;101135.88;4996261;28;20030;-72
2021/01/19 00:29:09;;;;;;;8.50;4.28;;;;;;;2.87;73.35;101132.38;4996491;28;20021;-72
2021/01/19 00:31:34;;;;;;;8.98;4.18;;;;;;;2.90;73.18;101126.97;4995143;28;20124;-71
2021/01/19 00:34:00;;;;;;;8.00;4.60;;;;;;;2.90;73.20;101132.19;4996929;28;20085;-72
2021/01/19 00:36:25;;;;;;;6.38;3.70;;;;;;;2.80;73.82;101129.25;4996594;28;20427;-71
2021/01/19 00:38:50;;;;;;;7.30;4.25;;;;;;;2.87;73.37;101127.97;4994604;28;20116;-72
2021/01/19 00:41:15;;;;;;;10.05;4.70;;;;;;;2.87;73.46;101135.81;4994498;28;20045;-71
2021/01/19 00:43:41;;;;;;;9.32;4.65;;;;;;;2.92;73.28;101133.78;4995924;28;20031;-71
2021/01/19 00:46:06;;;;;;;8.77;4.25;;;;;;;2.87;73.40;101127.16;4997683;28;20062;-71
2021/01/19 00:48:32;;;;;;;8.30;4.18;;;;;;;2.84;73.49;101127.31;4996194;28;20018;-71
2021/01/19 00:50:58;;;;;;;6.72;4.28;;;;;;;2.80;73.55;101121.41;5001699;28;20621;-71
2021/01/19 00:53:23;;;;;;;7.72;4.13;;;;;;;2.81;73.86;101132.69;4997269;28;20244;-71
2021/01/19 00:55:48;;;;;;;10.07;4.15;;;;;;;2.95;73.04;101130.97;5005474;28;20092;-72
2021/01/19 00:58:14;;;;;;;7.97;4.10;;;;;;;2.89;73.26;101131.34;4998172;28;20465;-71
2021/01/19 01:00:39;;;;;;;5.78;3.90;;;;;;;2.88;73.37;101123.59;4995540;28;20114;-71
2021/01/19 01:03:05;;;;;;;7.50;4.18;;;;;;;2.89;73.18;101117.47;4998757;28;20025;-71
2021/01/19 01:05:30;;;;;;;10.48;4.40;;;;;;;2.85;73.28;101110.72;4997814;28;20049;-71
2021/01/19 01:07:58;;;;;;;5.75;3.88;;;;;;;2.78;73.61;101120.66;4997503;28;20097;-71
2021/01/19 01:10:23;;;;;;;7.43;3.90;;;;;;;2.73;73.98;101115.69;4995727;28;20037;-73
2021/01/19 01:12:48;;;;;;;7.82;4.70;;;;;;;2.83;73.57;101115.19;4996268;28;20419;-73
2021/01/19 01:15:21;;;;;;;9.60;4.85;;;;;;;2.80;73.77;101124.03;4997275;28;20504;-73
2021/01/19 01:17:46;;;;;;;12.15;4.90;;;;;;;2.81;73.62;101117.03;4994283;28;20073;-72
2021/01/19 01:20:12;;;;;;;7.97;4.53;;;;;;;2.81;73.30;101117.88;5003282;28;20471;-73
2021/01/19 01:22:42;;;;;;;7.50;4.53;;;;;;;2.79;73.44;101104.09;4998699;28;20030;-73
2021/01/19 01:25:12;;;;;;;11.52;4.32;;;;;;;2.82;73.26;101103.06;5000067;28;20100;-73
2021/01/19 01:27:39;;;;;;;12.65;4.93;;;;;;;2.72;73.68;101095.75;4998681;28;20034;-72
2021/01/19 01:30:05;;;;;;;9.02;4.43;;;;;;;2.79;73.19;101091.03;4997161;28;20030;-73
2021/01/19 01:32:31;;;;;;;9.32;4.53;;;;;;;2.81;73.01;101083.06;5002725;28;20289;-72
2021/01/19 01:34:56;;;;;;;15.95;4.85;;;;;;;2.88;72.76;101080.03;4997038;28;20025;-72
2021/01/19 01:37:21;;;;;;;8.23;4.43;;;;;;;2.79;73.10;101075.34;4998549;28;20038;-73
2021/01/19 01:39:47;;;;;;;11.60;5.32;;;;;;;2.85;72.82;101079.38;4995120;28;20065;-73
2021/01/19 01:42:23;;;;;;;9.32;4.65;;;;;;;2.77;73.35;101066.75;4993773;28;20435;-72
2021/01/19 01:44:49;;;;;;;11.05;5.30;;;;;;;2.81;73.01;101070.84;4994642;28;20031;-73
2021/01/19 01:47:21;;;;;;;7.90;4.50;;;;;;;2.75;73.39;101072.06;4994483;28;20026;-72
2021/01/19 01:49:47;;;;;;;9.88;4.95;;;;;;;2.87;72.83;101056.63;4998841;28;20032;-73
2021/01/19 01:52:13;;;;;;;11.10;5.30;;;;;;;2.76;72.92;101050.25;5002822;28;20488;-73
2021/01/19 01:54:38;;;;;;;13.02;6.07;;;;;;;2.75;73.04;101043.34;4997143;28;20066;-73
2021/01/19 01:57:05;;;;;;;11.23;5.38;;;;;;;2.72;73.18;101035.69;5002692;28;20407;-73
2021/01/19 01:59:31;;;;;;;10.93;5.47;;;;;;;2.87;72.66;101047.00;4994477;28;20026;-72
2021/01/19 02:02:06;;;;;;;10.35;4.97;;;;;;;2.86;72.77;101053.19;4995656;28;20122;-73
2021/01/19 02:04:32;;;;;;;11.18;5.82;;;;;;;2.85;72.38;101048.88;4993131;28;20120;-73
2021/01/19 02:07:02;;;;;;;13.00;6.20;;;;;;;2.79;72.86;101049.25;4996069;28;20558;-73
2021/01/19 02:09:34;;;;;;;10.40;5.20;;;;;;;2.87;72.50;101048.78;4992279;28;20038;-73
2021/01/19 02:12:05;;;;;;;11.30;5.18;;;;;;;2.78;72.87;101042.31;4993708;28;20038;-72
2021/01/19 02:14:33;;;;;;;;;;;;;;;2.87;72.35;101054.84;4999302;28;20026;-73
2021/01/19 02:17:23;;;;;;;10.27;4.90;;;;;;;2.76;72.63;101039.81;4991319;28;19910;-73
2021/01/19 02:20:19;;;;;;;11.57;5.03;;;;;;;2.83;72.78;101034.22;5002363;28;20042;-73
2021/01/19 02:23:10;;;;;;;11.02;5.63;;;;;;;2.71;73.04;101027.94;4995091;28;20109;-73
2021/01/19 02:26:19;;;;;;;9.45;5.30;;;;;;;2.84;72.35;101025.47;4993209;28;20550;-73
2021/01/19 02:28:51;;;;;;;7.55;4.97;;;;;;;2.80;72.36;101023.97;4986859;28;20038;-73
2021/01/19 02:31:51;;;;;;;9.65;5.82;;;;;;;2.75;72.36;101021.59;5001782;28;20116;-72
2021/01/19 02:34:26;;;;;;;9.23;4.55;;;;;;;2.72;72.55;101030.47;4995653;28;20030;-72
2021/01/19 02:36:58;;;;;;;10.85;4.60;;;;;;;2.73;72.47;101023.47;4996465;28;20030;-72
2021/01/19 02:39:38;;;;;;;9.55;5.22;;;;;;;2.78;71.83;101010.97;4995327;28;20026;-72
2021/01/19 02:42:08;;;;;;;11.18;4.53;;;;;;;2.80;71.62;101016.13;4991066;28;20467;-73
2021/01/19 02:44:37;;;;;;;8.07;4.20;;;;;;;2.82;71.69;101011.66;4998708;28;20121;-72
2021/01/19 02:47:04;;;;;;;9.50;5.20;;;;;;;2.82;71.36;100998.59;4990845;28;20364;-73
2021/01/19 02:49:29;;;;;;;7.45;4.82;;;;;;;2.81;71.47;101002.94;4996228;28;20030;-73
2021/01/19 02:51:57;;;;;;;8.70;4.97;;;;;;;2.81;71.57;100976.84;5000963;28;20593;-73
2021/01/19 02:54:22;;;;;;;7.70;4.30;;;;;;;2.80;71.41;100984.78;4993404;28;20210;-72
2021/01/19 02:56:59;;;;;;;9.38;4.30;;;;;;;2.89;71.02;100989.47;4996293;28;20160;-73
2021/01/19 02:59:55;;;;;;;6.45;4.10;;;;;;;2.84;71.10;100991.50;4992593;28;20394;-73
2021/01/19 03:02:23;;;;;;;9.02;3.67;;;;;;;2.83;71.17;100992.44;4989901;28;20038;-72
2021/01/19 03:04:52;;;;;;;8.80;4.07;;;;;;;2.79;71.16;100981.34;4995348;28;20444;-73
2021/01/19 03:07:21;;;;;;;9.82;4.05;;;;;;;2.87;70.75;100980.88;4996693;28;20093;-73
2021/01/19 03:09:48;;;;;;;6.22;3.70;;;;;;;2.83;71.04;100974.97;4995991;28;20029;-73
2021/01/19 03:12:15;;;;;;;8.18;4.00;;;;;;;2.90;70.56;100965.00;4990132;28;20026;-71
2021/01/19 03:14:41;;;;;;;8.00;3.70;;;;;;;2.85;70.65;100970.50;5000096;28;20066;-71
2021/01/19 03:17:08;;;;;;;7.40;3.95;;;;;;;2.81;70.76;100965.56;5000417;28;20480;-71
2021/01/19 03:19:41;;;;;;;6.18;4.07;;;;;;;2.85;70.29;100964.44;4992394;28;20499;-71
2021/01/19 03:22:08;;;;;;;8.18;3.45;;;;;;;2.82;70.38;100956.81;4991767;28;20510;-71
2021/01/19 03:24:34;;;;;;;6.50;3.00;;;;;;;2.81;70.48;100960.34;4994608;28;20034;-71
2021/01/19 03:26:59;;;;;;;6.38;3.30;;;;;;;2.76;70.78;100960.59;4992873;28;20041;-71
2021/01/19 03:29:25;;;;;;;8.25;3.38;;;;;;;2.86;70.05;100958.28;4994530;28;20092;-71
2021/01/19 03:31:50;;;;;;;6.80;3.38;;;;;;;2.84;70.13;100961.00;4999553;28;20050;-71
2021/01/19 03:34:16;;;;;;;5.95;3.28;;;;;;;2.90;69.97;100970.25;4993031;28;20464;-71
2021/01/19 03:36:41;;;;;;;7.80;3.28;;;;;;;2.96;69.44;100954.22;4996120;28;20064;-71
2021/01/19 03:39:07;;;;;;;8.38;3.00;;;;;;;2.81;69.97;100949.88;4996575;28;20141;-71
2021/01/19 03:41:32;;;;;;;6.53;3.22;;;;;;;2.89;69.87;100943.28;5013220;28;20038;-71
2021/01/19 03:43:58;;;;;;;7.35;3.35;;;;;;;2.86;70.17;100946.09;4992967;28;20034;-71
2021/01/19 03:46:23;;;;;;;5.78;2.88;;;;;;;2.80;70.48;100943.00;5002916;28;20413;-71
2021/01/19 03:48:49;;;;;;;7.55;3.17;;;;;;;2.90;69.78;100949.34;4994665;28;20069;-71
2021/01/19 03:51:14;;;;;;;6.03;3.10;;;;;;;2.86;69.52;100940.88;5002176;28;20138;-71
2021/01/19 03:53:40;;;;;;;8.07;3.10;;;;;;;2.96;69.22;100933.31;4994643;28;20015;-71
2021/01/19 03:56:05;;;;;;;5.47;3.08;;;;;;;2.94;68.90;100924.72;5004184;28;20030;-71
2021/01/19 03:58:30;;;;;;;6.65;3.40;;;;;;;2.98;68.91;100915.78;4986508;28;20033;-72
2021/01/19 04:00:56;;;;;;;6.32;3.10;;;;;;;2.96;69.10;100922.88;5003411;28;20049;-71
2021/01/19 04:03:21;;;;;;;6.43;3.47;;;;;;;3.04;68.19;100915.38;5004239;28;20057;-71
2021/01/19 04:05:46;;;;;;;9.32;3.60;;;;;;;3.00;68.79;100918.28;5000761;28;20034;-70
2021/01/19 04:08:12;;;;;;;4.90;2.88;;;;;;;3.02;68.52;100917.25;5003047;28;20022;-71
2021/01/19 04:10:37;;;;;;;6.40;3.13;;;;;;;3.11;68.21;100908.03;4993866;28;20085;-71
2021/01/19 04:13:02;;;;;;;7.05;3.47;;;;;;;3.02;68.58;100903.34;5001666;28;20022;-71
2021/01/19 04:15:28;;;;;;;5.28;3.20;;;;;;;2.88;69.04;100905.03;4994054;28;20033;-71
2021/01/19 04:17:53;;;;;;;5.10;3.28;;;;;;;3.06;68.79;100908.28;5000662;28;20031;-71
2021/01/19 04:20:18;;;;;;;7.88;3.63;;;;;;;2.97;69.11;100901.84;4995457;28;20411;-72
2021/01/19 04:22:44;;;;;;;7.32;3.28;;;;;;;2.91;69.23;100890.97;4999538;28;20026;-71
2021/01/19 04:25:09;;;;;;;7.70;3.17;;;;;;;3.03;68.87;100897.19;4995897;28;20129;-71
2021/01/19 04:27:35;;;;;;;6.63;3.90;;;;;;;3.02;68.76;100885.06;5003289;28;20038;-71
2021/01/19 04:30:07;;;;;;;8.63;3.92;;;;;;;2.99;68.84;100886.09;4993784;28;20514;-71
2021/01/19 04:32:32;;;;;;;6.70;3.58;;;;;;;3.04;68.46;100891.03;5004325;28;20495;-71
2021/01/19 04:34:58;;;;;;;7.72;3.63;;;;;;;3.04;68.83;100877.97;4992899;28;20041;-71
2021/01/19 04:37:23;;;;;;;7.22;3.35;;;;;;;2.96;68.96;100881.06;5008897;28;20092;-70
2021/01/19 04:39:48;;;;;;;6.68;3.42;;;;;;;2.91;69.58;100876.13;4994729;28;20080;-71
2021/01/19 04:42:18;;;;;;;5.97;3.65;;;;;;;2.98;69.44;100866.16;4998613;28;20530;-71
2021/01/19 04:44:43;;;;;;;5.90;3.20;;;;;;;2.90;69.45;100865.75;4997357;28;20124;-71
2021/01/19 04:47:10;;;;;;;6.15;3.33;;;;;;;2.90;69.31;100863.16;4997310;28;20097;-70
2021/01/19 04:49:36;;;;;;;5.10;3.40;;;;;;;2.90;69.37;100865.75;5004388;28;20390;-71
2021/01/19 04:52:04;;;;;;;7.53;3.40;;;;;;;2.83;69.50;100852.22;4997037;28;20081;-71
2021/01/19 04:54:37;;;;;;;4.55;2.83;;;;;;;2.74;70.16;100845.81;4998997;28;20025;-71
2021/01/19 04:57:09;;;;;;;4.95;2.97;;;;;;;2.74;69.92;100839.72;4993469;28;20089;-71
2021/01/19 04:59:38;;;;;;;4.90;3.03;;;;;;;2.75;69.93;100844.88;4998474;28;20364;-71
2021/01/19 05:02:15;;;;;;;7.90;3.70;;;;;;;2.96;68.76;100850.56;4997940;28;20495;-71
2021/01/19 05:04:41;;;;;;;8.55;3.70;;;;;;;2.89;69.00;100853.66;4999133;28;20376;-71
2021/01/19 05:07:29;;;;;;;8.20;4.13;;;;;;;2.73;69.78;100858.97;5002905;28;20149;-71
2021/01/19 05:13:36;;;;;;;7.13;3.63;;;;;;;2.79;69.30;100848.16;5002438;28;20097;-71
2021/01/19 05:16:03;;;;;;;7.82;3.67;;;;;;;2.86;68.96;100848.59;5001699;28;20041;-71
2021/01/19 05:18:30;;;;;;;8.27;3.95;;;;;;;2.79;69.20;100837.69;4999128;28;20483;-71
2021/01/19 05:21:00;;;;;;;10.15;4.07;;;;;;;2.89;68.99;100838.81;4999942;28;20045;-71
2021/01/19 05:23:27;;;;;;;5.22;2.95;;;;;;;2.66;69.68;100831.53;4993630;28;20034;-71
2021/01/19 05:25:55;;;;;;;8.88;3.85;;;;;;;2.83;69.11;100838.34;4999338;28;20027;-71
2021/01/19 05:28:35;;;;;;;6.65;3.42;;;;;;;2.85;68.94;100819.03;4992951;28;20030;-71
2021/01/19 05:31:17;;;;;;;8.10;3.47;;;;;;;2.74;69.41;100816.22;4998193;28;20129;-71
2021/01/19 05:33:55;;;;;;;7.35;3.47;;;;;;;2.70;69.43;100817.38;4992757;28;20611;-71
2021/01/19 05:36:21;;;;;;;5.82;3.35;;;;;;;2.55;70.10;100806.94;4998557;28;20088;-71
2021/01/19 05:38:48;;;;;;;7.00;3.38;;;;;;;2.76;69.25;100793.47;4992334;28;20062;-72
2021/01/19 05:41:38;;;;;;;6.75;4.00;;;;;;;2.80;69.31;100791.53;4997781;28;20022;-71
2021/01/19 05:44:27;;;;;;;10.90;3.75;;;;;;;2.71;68.81;100790.31;4998555;28;20183;-72
2021/01/19 05:46:58;;;;;;;6.82;3.60;;;;;;;2.76;68.68;100788.25;4996251;28;20022;-71
2021/01/19 05:49:26;;;;;;;6.00;3.20;;;;;;;2.73;68.64;100778.84;5000788;28;20121;-71
2021/01/19 05:52:01;;;;;;;7.28;3.50;;;;;;;2.84;68.31;100777.34;5005000;28;20099;-71
2021/01/19 05:54:28;;;;;;;8.05;3.20;;;;;;;2.80;68.26;100768.03;4994845;28;20014;-71
2021/01/19 05:57:08;;;;;;;5.65;3.00;;;;;;;2.86;68.14;100770.25;4996583;28;20044;-71
2021/01/19 05:59:35;;;;;;;8.48;3.55;;;;;;;2.86;68.00;100765.00;4994072;28;20030;-71
2021/01/19 06:02:05;;;;;;;5.93;2.72;;;;;;;2.65;68.83;100752.38;4995643;28;20120;-71
2021/01/19 06:04:34;;;;;;;6.88;3.00;;;;;;;2.79;68.34;100758.50;4993076;28;20030;-72
2021/01/19 06:07:01;;;;;;;5.85;3.00;;;;;;;2.82;67.86;100753.09;4995495;28;20026;-71
2021/01/19 06:09:26;;;;;;;8.52;3.03;;;;;;;2.74;68.06;100756.16;4992199;28;20023;-71
2021/01/19 06:11:54;;;;;;;6.38;2.80;;;;;;;2.70;68.39;100755.53;4994666;28;20040;-71
2021/01/19 06:14:23;;;;;;;6.28;2.97;;;;;;;2.78;68.06;100743.78;4993528;28;20031;-70
2021/01/19 06:16:49;;;;;;;5.43;2.88;;;;;;;2.75;67.88;100735.19;5006175;28;20395;-71
2021/01/19 06:19:28;;;;;;;5.15;2.92;;;;;;;2.77;68.30;100732.50;4993313;28;20026;-71
2021/01/19 06:21:54;;;;;;;5.78;2.60;;;;;;;2.60;68.87;100733.56;4997761;28;20034;-71
2021/01/19 06:24:30;;;;;;;9.05;3.78;;;;;;;2.73;68.30;100736.22;5001097;28;20041;-71
2021/01/19 06:26:56;;;;;;;7.68;3.00;;;;;;;2.79;67.80;100738.47;4995644;28;20034;-72
2021/01/19 06:29:24;;;;;;;4.88;2.67;;;;;;;2.66;68.47;100738.38;4998767;28;20037;-71
2021/01/19 06:31:51;;;;;;;6.40;2.70;;;;;;;2.71;68.25;100735.47;4998281;28;20395;-71
2021/01/19 06:34:34;;;;;;;5.55;2.58;;;;;;;2.65;68.44;100725.44;4995403;28;20092;-71
2021/01/19 06:37:00;;;;;;;5.57;2.80;;;;;;;2.66;68.22;100717.50;4995249;28;20030;-71
2021/01/19 06:39:34;;;;;;;7.05;2.97;;;;;;;2.55;68.46;100718.19;4990933;28;20117;-71
2021/01/19 06:42:05;;;;;;;4.30;2.55;;;;;;;2.54;68.72;100710.44;4991963;28;20394;-70
2021/01/19 06:44:38;;;;;;;5.35;2.80;;;;;;;2.59;68.44;100705.75;4984017;28;20033;-71
2021/01/19 06:47:05;;;;;;;7.13;2.78;;;;;;;2.58;68.68;100703.25;4995802;28;20058;-71
2021/01/19 06:49:36;;;;;;;6.18;2.80;;;;;;;2.52;68.32;100694.84;4992044;28;20117;-71
2021/01/19 06:52:10;;;;;;;5.03;2.35;;;;;;;2.53;68.91;100693.94;4998370;28;20116;-72
2021/01/19 06:55:03;;;;;;;5.88;2.70;;;;;;;2.79;67.55;100686.25;5005532;28;20034;-73
2021/01/19 06:57:34;;;;;;;5.07;2.45;;;;;;;2.65;67.63;100665.41;5007302;28;20037;-72
2021/01/19 07:00:11;;;;;;;5.50;2.80;;;;;;;2.50;68.28;100680.22;4999007;28;20182;-72
2021/01/19 07:02:40;;;;;;;4.55;2.45;;;;;;;2.54;68.23;100681.72;4998160;28;20434;-73
2021/01/19 07:05:10;;;;;;;5.45;2.85;;;;;;;2.67;67.66;100676.56;4991298;28;20061;-72
2021/01/19 07:07:42;;;;;;;5.03;2.85;;;;;;;2.69;67.73;100674.69;4997088;28;20034;-72
2021/01/19 07:10:13;;;;;;;6.07;2.85;;;;;;;2.58;67.81;100672.78;4990768;28;20427;-72
2021/01/19 07:12:54;;;;;;;5.15;2.65;;;;;;;2.44;68.47;100676.25;4997781;28;20034;-72
2021/01/19 07:15:57;;;;;;;4.60;2.50;;;;;;;2.42;68.98;100680.72;4991814;28;20097;-72
2021/01/19 07:18:48;;;;;;;4.97;2.40;;;;;;;2.48;68.41;100671.66;5005407;28;20490;-72
2021/01/19 07:21:16;;;;;;;4.78;2.58;;;;;;;2.59;68.02;100660.56;5000668;28;20235;-72
2021/01/19 07:23:45;;;;;;;6.30;2.67;;;;;;;2.64;68.13;100653.25;5005040;28;20026;-72
2021/01/19 07:26:16;;;;;;;4.57;2.75;;;;;;;2.63;67.79;100652.44;5002088;28;20032;-72
2021/01/19 07:28:42;;;;;;;7.50;2.53;;;;;;;2.50;68.36;100641.94;5005986;28;20034;-72
2021/01/19 07:31:08;;;;;;;4.28;2.20;;;;;;;2.53;68.41;100643.50;5003061;28;20741;-74
2021/01/19 07:33:36;;;;;;;7.68;3.10;;;;;;;2.59;68.22;100645.72;4999715;28;20030;-74
2021/01/19 07:36:03;;;;;;;5.57;2.30;;;;;;;2.61;67.94;100646.47;4993131;28;20117;-74
2021/01/19 07:38:28;;;;;;;5.05;2.42;;;;;;;2.63;67.66;100639.38;4991231;28;20088;-76
2021/01/19 07:40:55;;;;;;;4.60;2.55;;;;;;;2.43;68.63;100639.78;4990359;28;20038;-73
2021/01/19 07:43:20;;;;;;;4.68;2.50;;;;;;;2.45;68.54;100636.16;4991369;28;20117;-73
2021/01/19 07:45:51;;;;;;;6.90;2.70;;;;;;;2.44;68.81;100644.09;4998838;28;20606;-73
2021/01/19 07:48:31;;;;;;;6.07;2.42;;;;;;;2.37;68.95;100635.81;4993095;28;20486;-75
2021/01/19 07:51:12;;;;;;;5.25;2.67;;;;;;;2.49;68.39;100632.41;5005984;28;20089;-74
2021/01/19 07:53:51;;;;;;;7.80;2.72;;;;;;;2.68;67.75;100633.88;4992937;28;20080;-75
2021/01/19 07:56:30;;;;;;;6.20;2.90;;;;;;;2.63;67.85;100642.00;4991452;28;20042;-74
2021/01/19 07:58:57;;;;;;;6.65;2.20;;;;;;;2.52;68.21;100626.16;4991728;28;20333;-73
2021/01/19 08:01:31;;;;;;;6.07;2.30;;;;;;;2.45;68.78;100630.94;4988568;28;20030;-73
2021/01/19 08:04:14;;;;;;;5.95;2.30;;;;;;;2.52;68.55;100618.34;4991250;28;20073;-74
2021/01/19 08:06:40;;;;;;;6.13;2.90;;;;;;;2.62;68.08;100624.66;4990654;28;20029;-73
2021/01/19 08:09:14;;;;;;;7.00;2.75;;;;;;;2.59;68.43;100619.63;4997270;28;20446;-73
2021/01/19 08:11:41;;;;;;;6.75;2.60;;;;;;;2.65;68.26;100610.56;4990217;28;20026;-73
2021/01/19 08:14:07;;;;;;;6.15;2.72;;;;;;;2.68;68.32;100619.03;4997006;28;20022;-74
2021/01/19 08:16:35;;;;;;;5.45;2.58;;;;;;;2.85;67.50;100620.53;4994059;28;20077;-74
2021/01/19 08:19:09;;;;;;;4.22;2.08;;;;;;;2.75;68.06;100612.47;5001223;28;20465;-73
2021/01/19 08:21:49;;;;;;;4.28;2.60;;;;;;;2.85;67.68;100614.50;4999090;28;20448;-73
2021/01/19 08:24:14;;;;;;;6.28;2.55;;;;;;;2.80;67.65;100616.56;4999677;28;20036;-71
2021/01/19 08:26:41;;;;;;;8.35;2.63;;;;;;;2.75;68.09;100609.03;4998847;28;20018;-73
2021/01/19 08:29:06;;;;;;;4.70;2.60;;;;;;;2.63;68.76;100602.00;5001662;28;20034;-73
2021/01/19 08:31:36;;;;;;;8.13;2.63;;;;;;;2.94;67.19;100591.22;4999078;28;20056;-74
2021/01/19 08:34:06;;;;;;;5.82;2.47;;;;;;;3.05;66.90;100587.03;4999946;28;20076;-75
2021/01/19 08:36:35;;;;;;;7.03;2.35;;;;;;;2.86;67.74;100582.19;5002634;28;20029;-73
2021/01/19 08:39:04;;;;;;;6.20;2.40;;;;;;;2.92;67.28;100581.81;4991081;28;20054;-73
2021/01/19 08:41:30;;;;;;;7.95;2.55;;;;;;;2.98;66.87;100578.81;4995178;28;20022;-74
2021/01/19 08:43:58;;;;;;;5.60;2.20;;;;;;;2.95;67.36;100579.81;4994664;28;20459;-73
2021/01/19 08:46:25;;;;;;;6.35;2.05;;;;;;;2.85;68.00;100573.53;4993752;28;20062;-73
2021/01/19 08:48:51;;;;;;;5.03;2.50;;;;;;;3.03;67.06;100579.34;4996748;28;20034;-74
2021/01/19 08:51:24;;;;;;;5.70;2.20;;;;;;;2.94;67.55;100585.16;5001296;28;20034;-74
2021/01/19 08:53:49;;;;;;;4.38;2.40;;;;;;;2.96;67.41;100581.50;5002463;28;20510;-74
2021/01/19 08:56:22;;;;;;;7.53;2.42;;;;;;;2.97;67.46;100579.72;5008859;28;20045;-74
2021/01/19 08:58:47;;;;;;;5.93;2.35;;;;;;;2.94;67.66;100567.72;5002954;28;20065;-73
2021/01/19 09:01:14;;;;;;;9.63;2.13;;;;;;;2.97;67.26;100564.88;5001189;28;20634;-73
2021/01/19 09:03:40;;;;;;;4.80;2.00;;;;;;;3.16;66.41;100559.25;4994642;28;20423;-74
2021/01/19 09:06:08;;;;;;;4.60;1.90;;;;;;;3.01;67.19;100560.31;4993972;28;20105;-73
2021/01/19 09:08:35;;;;;;;6.57;2.55;;;;;;;3.31;66.00;100551.31;4989552;28;20027;-73
2021/01/19 09:11:07;;;;;;;6.93;2.90;;;;;;;3.16;66.78;100551.44;4995602;28;20621;-73
2021/01/19 09:13:36;;;;;;;9.13;2.67;;;;;;;3.28;66.06;100548.94;4998145;28;20045;-74
2021/01/19 09:16:01;;;;;;;6.47;2.50;;;;;;;3.18;66.81;100548.72;4995969;28;20054;-74
2021/01/19 09:18:27;;;;;;;8.77;2.40;;;;;;;3.12;67.24;100557.81;4998365;28;20168;-74
2021/01/19 09:21:11;;;;;;;5.25;2.28;;;;;;;3.09;67.45;100551.94;5000218;28;20026;-73
2021/01/19 09:23:36;;;;;;;8.98;2.60;;;;;;;3.25;66.47;100547.38;4992837;28;20027;-74
2021/01/19 09:26:08;;;;;;;4.50;1.90;;;;;;;3.22;66.57;100531.03;4992972;28;20029;-73
2021/01/19 09:28:35;;;;;;;6.38;2.38;;;;;;;3.17;67.06;100544.41;4993185;28;20500;-73
2021/01/19 09:31:17;;;;;;;3.40;1.63;;;;;;;3.20;66.74;100525.94;4991624;28;20031;-73
2021/01/19 09:33:44;;;;;;;6.15;2.20;;;;;;;3.41;65.72;100526.25;4992425;28;20022;-75
2021/01/19 09:36:11;;;;;;;6.32;2.28;;;;;;;3.43;65.59;100523.50;4992795;28;20030;-74
2021/01/19 09:38:37;;;;;;;8.15;2.60;;;;;;;3.46;65.68;100513.69;4992277;28;20033;-74
2021/01/19 09:41:04;;;;;;;5.72;2.15;;;;;;;3.34;65.78;100509.31;4992585;28;20041;-71
2021/01/19 09:43:31;;;;;;;5.10;2.13;;;;;;;3.42;65.72;100498.34;4992182;28;20030;-71
2021/01/19 09:46:01;;;;;;;5.43;1.70;;;;;;;3.38;65.80;100503.78;4992765;28;20034;-72
2021/01/19 09:48:29;;;;;;;5.95;2.10;;;;;;;3.43;65.94;100519.13;4992856;28;20030;-69
2021/01/19 09:50:58;;;;;;;8.13;2.30;;;;;;;3.57;64.91;100510.31;4992278;28;20121;-72
2021/01/19 09:53:25;;;;;;;7.13;2.65;;;;;;;3.61;64.63;100499.53;4991827;28;20080;-73
2021/01/19 09:55:51;;;;;;;7.75;2.22;;;;;;;3.70;64.29;100499.84;5000330;28;20045;-73
2021/01/19 09:58:21;;;;;;;7.70;2.30;;;;;;;3.71;64.99;100506.75;4991050;28;20030;-74
2021/01/19 10:00:47;;;;;;;7.35;2.13;;;;;;;3.67;64.61;100502.66;4991400;28;20407;-73
2021/01/19 10:03:17;;;;;;;5.45;2.05;;;;;;;3.67;65.16;100495.69;4991567;28;20030;-74
2021/01/19 10:05:45;;;;;;;8.88;2.00;;;;;;;3.51;65.55;100490.69;5000171;28;20022;-72
2021/01/19 10:08:11;;;;;;;7.93;2.30;;;;;;;3.49;65.75;100476.88;4991877;28;20027;-74
2021/01/19 10:10:39;;;;;;;5.43;2.00;;;;;;;3.46;65.98;100481.50;4991695;28;20029;-73
2021/01/19 10:13:05;;;;;;;4.85;1.98;;;;;;;3.52;65.57;100474.03;4991462;28;20026;-73
2021/01/19 10:15:32;;;;;;;8.20;2.42;;;;;;;3.60;65.03;100471.75;4983812;28;20018;-73
2021/01/19 10:17:58;;;;;;;7.03;1.95;;;;;;;3.49;65.38;100466.41;4992016;28;20034;-73
2021/01/19 10:20:31;;;;;;;5.65;1.95;;;;;;;3.54;65.32;100463.47;4991261;28;20022;-73
2021/01/19 10:22:57;;;;;;;7.93;2.58;;;;;;;3.53;65.03;100464.44;4991613;28;20033;-73
2021/01/19 10:25:29;;;;;;;5.13;1.88;;;;;;;3.54;65.27;100460.88;4990339;28;20508;-74
2021/01/19 10:27:56;;;;;;;5.03;2.42;;;;;;;3.38;66.03;100448.03;4991597;28;20102;-73
2021/01/19 10:30:27;;;;;;;7.05;2.13;;;;;;;3.45;65.90;100435.38;4990516;28;20026;-73
2021/01/19 10:32:52;;;;;;;5.55;2.13;;;;;;;3.59;64.98;100435.22;4990773;28;20025;-74
2021/01/19 10:35:34;;;;;;;7.65;2.28;;;;;;;3.77;64.62;100449.63;4991228;28;20023;-74
2021/01/19 10:38:03;;;;;;;5.03;2.25;;;;;;;3.58;64.67;100439.63;4991130;28;20077;-73
2021/01/19 10:40:29;;;;;;;7.72;2.28;;;;;;;3.51;65.01;100432.34;4994428;28;20025;-72
2021/01/19 10:42:56;;;;;;;6.57;2.25;;;;;;;3.50;65.55;100434.09;5000746;28;20053;-76
2021/01/19 10:45:24;;;;;;;7.03;2.28;;;;;;;3.45;65.86;100422.31;4991302;28;20037;-73
2021/01/19 10:47:50;;;;;;;6.78;1.92;;;;;;;3.54;65.51;100412.03;4990585;28;20088;-72
2021/01/19 10:50:18;;;;;;;5.00;1.92;;;;;;;3.51;65.31;100407.03;5001039;28;20427;-73
2021/01/19 10:53:03;;;;;;;4.40;2.30;;;;;;;3.53;65.22;100396.47;4992716;28;20034;-73
2021/01/19 10:55:30;;;;;;;6.28;1.90;;;;;;;3.57;65.49;100395.28;5001593;28;20026;-73
2021/01/19 10:57:58;;;;;;;6.18;2.08;;;;;;;3.63;65.15;100383.56;4992800;28;20352;-73
2021/01/19 11:00:25;;;;;;;9.85;2.35;;;;;;;3.58;64.95;100386.50;4992804;28;20122;-72
2021/01/19 11:02:51;;;;;;;6.00;2.35;;;;;;;3.50;65.81;100384.44;4993095;28;20097;-73
2021/01/19 11:05:17;;;;;;;4.18;2.25;;;;;;;3.69;64.89;100378.72;4993189;28;20076;-73
2021/01/19 11:07:47;;;;;;;7.28;2.40;;;;;;;3.70;64.85;100379.56;4992894;28;20093;-73
2021/01/19 11:10:14;;;;;;;6.40;2.20;;;;;;;3.63;65.17;100371.31;4992232;28;20026;-74
2021/01/19 11:12:43;;;;;;;8.30;2.20;;;;;;;3.73;64.87;100368.88;4993195;28;20730;-74
2021/01/19 11:15:10;;;;;;;6.78;1.90;;;;;;;3.75;64.33;100359.13;4993393;28;20034;-74
2021/01/19 11:17:36;;;;;;;6.03;2.17;;;;;;;3.44;65.98;100357.91;4993246;28;20245;-72
2021/01/19 11:20:07;;;;;;;3.97;1.92;;;;;;;3.44;66.33;100350.91;4999221;28;20502;-72
2021/01/19 11:22:33;;;;;;;5.05;2.10;;;;;;;3.85;64.31;100354.91;4991980;28;20042;-75
2021/01/19 11:24:59;;;;;;;8.88;2.28;;;;;;;3.81;64.16;100345.59;4998638;28;20391;-73
2021/01/19 11:27:24;;;;;;;3.55;2.17;;;;;;;3.85;64.43;100354.06;4992900;28;20042;-74
2021/01/19 11:29:50;;;;;;;7.28;2.47;;;;;;;3.62;66.02;100348.72;4989974;28;20034;-73
2021/01/19 11:32:15;;;;;;;5.60;2.55;;;;;;;3.58;66.38;100340.28;4991904;28;20050;-74
2021/01/19 11:34:41;;;;;;;5.82;2.35;;;;;;;3.53;66.92;100338.97;4992096;28;20034;-74
2021/01/19 11:37:07;;;;;;;5.90;2.38;;;;;;;3.60;66.84;100329.72;4991048;28;20057;-73
2021/01/19 11:39:32;;;;;;;3.90;2.20;;;;;;;3.56;67.23;100329.09;4991686;28;20039;-73
2021/01/19 11:41:57;;;;;;;6.57;3.25;;;;;;;3.72;66.09;100309.66;4991252;28;20030;-74
2021/01/19 11:44:23;;;;;;;7.40;2.08;;;;;;;3.36;68.43;100307.03;4991829;28;20069;-73
2021/01/19 11:46:51;;;;;;;5.18;2.50;;;;;;;3.48;67.43;100302.69;4991728;28;20061;-74